Capitol Logistics 84


PHNL
Daniel K Inouye International Airport
Honolulu, Hawaii, US
NZAA
Auckland International Airport
Auckland, , NZ

Route Details

Aircraft Information
Primary: Boeing 747-400BCF
Backup: Boeing 777-200LRF
Route Data
Distance: 3832nm
Sched. Duration: 8h 10m
Avg. Duration: 8h 20m (+10m)
Times Flown: 2
Recm'd Route: OPIHI2 CARRP DATBE G347 DASNE G347 PUPIS G347 AA
Planned Altitude: 32,000ft
Origin Wx: PHNL 222053Z 16007KT 10SM FEW025 SCT039 BKN050 28/22 A2993 RMK AO2 SLP136 VCSH W T02780217 50003
Dest. Wx: NZAA 222100Z AUTO 36007KT 320V020 9999 BKN016/// BKN047/// 17/15 Q1025 NOSIG
Notes:

Financial History
Total Freight: 389,910lbs
Average Load: 194,955lbs/flt
Fuel Used: 323,446lbs
Avg. Fuel Used: 161,723lbs/flt
Fuel Expense: $223,178
Avg. Fuel Expense: $111,589
Avg. Fuel Cost: $0.69/lbs
Total Gross Income: $1,290,602
Pilot Pay: $378
Total Expenses: $139,489
Total Revenue: $923,948
Average Revenue: $645,301.06